Time;durP1;ratioP1;P1;durP2;ratioP2;P2;SDS_P1;SDS_P2;PMS_P1;PMS_P2;Temp;Humidity;BMP_temperature;BMP_pressure;BME280_temperature;BME280_humidity;BME280_pressure;Samples;Min_cycle;Max_cycle;Signal;HPM_P1;HPM_P2
2021/10/27 00:01:45;;;;;;;8.98;3.97;;;11.00;99.90;;;;;;5020311;28;20091;-62
2021/10/27 00:04:11;;;;;;;10.02;4.10;;;11.00;99.90;;;;;;5021768;28;20036;-63
2021/10/27 00:06:37;;;;;;;8.90;3.55;;;10.80;99.90;;;;;;5022375;28;20037;-62
2021/10/27 00:09:03;;;;;;;9.05;3.33;;;10.80;99.90;;;;;;5022122;28;20034;-62
2021/10/27 00:11:29;;;;;;;7.35;3.90;;;10.80;99.90;;;;;;5020657;28;20099;-63
2021/10/27 00:13:55;;;;;;;9.32;3.80;;;10.80;99.90;;;;;;5018766;28;20117;-62
2021/10/27 00:16:20;;;;;;;10.82;4.05;;;10.80;99.90;;;;;;5016958;28;20133;-63
2021/10/27 00:18:46;;;;;;;8.35;3.92;;;10.80;99.90;;;;;;5013357;28;20592;-62
2021/10/27 00:21:11;;;;;;;7.65;3.70;;;12.40;99.90;;;;;;5013534;28;20026;-63
2021/10/27 00:23:37;;;;;;;10.07;4.10;;;10.90;99.90;;;;;;5011901;28;20894;-63
2021/10/27 00:26:02;;;;;;;10.13;3.88;;;10.90;99.90;;;;;;5010460;28;20170;-63
2021/10/27 00:28:28;;;;;;;5.72;3.97;;;10.90;99.90;;;;;;5008871;28;20585;-62
2021/10/27 00:30:53;;;;;;;8.18;3.72;;;10.90;99.90;;;;;;5006112;28;20053;-63
2021/10/27 00:33:19;;;;;;;12.90;3.92;;;11.00;99.90;;;;;;5017469;28;20033;-63
2021/10/27 00:35:45;;;;;;;9.82;3.95;;;11.00;99.90;;;;;;5021530;28;20078;-63
2021/10/27 00:38:10;;;;;;;8.85;4.18;;;11.00;99.90;;;;;;5021603;28;20102;-63
2021/10/27 00:40:35;;;;;;;9.75;3.67;;;11.00;99.90;;;;;;5020615;28;20132;-62
2021/10/27 00:43:01;;;;;;;6.68;3.88;;;11.00;99.90;;;;;;5018195;28;20037;-62
2021/10/27 00:45:26;;;;;;;12.10;4.53;;;11.00;99.90;;;;;;5016425;28;20663;-62
2021/10/27 00:47:52;;;;;;;8.15;4.10;;;11.00;99.90;;;;;;5014288;28;20107;-63
2021/10/27 00:50:17;;;;;;;13.68;4.22;;;11.00;99.90;;;;;;5011343;28;20037;-62
2021/10/27 00:52:43;;;;;;;9.88;3.90;;;11.00;99.90;;;;;;5011433;28;20025;-63
2021/10/27 00:55:08;;;;;;;8.05;3.75;;;11.00;99.90;;;;;;5009001;28;20048;-62
2021/10/27 00:57:34;;;;;;;6.50;3.70;;;10.90;99.90;;;;;;5008419;28;20100;-63
2021/10/27 01:00:00;;;;;;;7.47;4.10;;;10.90;99.90;;;;;;5017918;28;20048;-63
2021/10/27 01:02:25;;;;;;;8.38;3.78;;;10.90;99.90;;;;;;5019721;28;20030;-63
2021/10/27 01:04:51;;;;;;;8.43;4.25;;;10.80;99.90;;;;;;5021095;28;20127;-63
2021/10/27 01:07:16;;;;;;;5.80;3.60;;;10.80;99.90;;;;;;5019625;28;20048;-63
2021/10/27 01:09:43;;;;;;;8.18;4.10;;;10.80;99.90;;;;;;5019148;28;20122;-63
2021/10/27 01:12:08;;;;;;;8.15;4.10;;;10.70;99.90;;;;;;5017139;28;20049;-62
2021/10/27 01:14:34;;;;;;;5.80;3.70;;;10.80;99.90;;;;;;5015484;28;20026;-63
2021/10/27 01:17:00;;;;;;;21.65;4.68;;;11.00;99.90;;;;;;5013795;28;20120;-63
2021/10/27 01:19:25;;;;;;;10.27;4.25;;;10.80;99.90;;;;;;5012132;28;20057;-62
2021/10/27 01:21:51;;;;;;;9.95;4.30;;;10.80;99.90;;;;;;5009143;28;20045;-63
2021/10/27 01:24:16;;;;;;;12.18;3.97;;;10.70;99.90;;;;;;5008441;28;20507;-63
2021/10/27 01:26:42;;;;;;;6.70;4.22;;;10.80;99.90;;;;;;5007079;28;20121;-63
2021/10/27 01:29:07;;;;;;;6.00;3.97;;;10.80;99.90;;;;;;5005106;28;20041;-63
2021/10/27 01:31:33;;;;;;;8.50;4.45;;;10.80;99.90;;;;;;5001388;28;20855;-62
2021/10/27 01:34:00;;;;;;;12.55;4.05;;;10.70;99.90;;;;;;5006586;28;20037;-62
2021/10/27 01:36:25;;;;;;;9.55;4.85;;;10.70;99.90;;;;;;5001884;28;20041;-62
2021/10/27 01:38:50;;;;;;;7.63;4.07;;;10.70;99.90;;;;;;5002343;28;20068;-62
2021/10/27 01:41:16;;;;;;;8.13;4.40;;;10.70;99.90;;;;;;5006379;28;20486;-63
2021/10/27 01:43:41;;;;;;;8.05;3.92;;;10.80;99.90;;;;;;5007012;28;20029;-63
2021/10/27 01:46:07;;;;;;;11.43;5.03;;;10.80;99.90;;;;;;5008836;28;20057;-63
2021/10/27 01:48:32;;;;;;;11.60;4.50;;;10.90;99.90;;;;;;5010068;28;20033;-62
2021/10/27 01:50:58;;;;;;;7.72;4.25;;;10.90;99.90;;;;;;5012067;28;20032;-62
2021/10/27 01:53:23;;;;;;;8.10;4.20;;;10.90;99.90;;;;;;5013492;28;20033;-63
2021/10/27 01:55:49;;;;;;;9.25;4.25;;;10.90;99.90;;;;;;5014908;28;20820;-63
2021/10/27 01:58:14;;;;;;;10.35;4.43;;;10.80;99.90;;;;;;5016622;28;20029;-63
2021/10/27 02:00:40;;;;;;;9.38;4.57;;;10.90;99.90;;;;;;5018374;28;20029;-63
2021/10/27 02:03:05;;;;;;;11.88;4.80;;;11.00;99.90;;;;;;5020805;28;20120;-63
2021/10/27 02:05:31;;;;;;;12.70;4.63;;;11.00;99.90;;;;;;5020362;28;20366;-63
2021/10/27 02:07:57;;;;;;;5.57;3.50;;;11.00;99.90;;;;;;5017492;28;20123;-63
2021/10/27 02:10:23;;;;;;;7.80;4.28;;;11.00;99.90;;;;;;5016136;28;20045;-63
2021/10/27 02:12:48;;;;;;;8.32;4.25;;;11.00;99.90;;;;;;5015442;28;20044;-63
2021/10/27 02:15:14;;;;;;;8.88;4.00;;;11.00;99.90;;;;;;5012938;28;20030;-63
2021/10/27 02:17:39;;;;;;;12.52;4.80;;;11.00;99.90;;;;;;5011498;28;20490;-63
2021/10/27 02:20:05;;;;;;;8.40;4.40;;;11.00;99.90;;;;;;5009820;28;20034;-62
2021/10/27 02:22:30;;;;;;;11.52;4.43;;;11.00;99.90;;;;;;5008337;28;20053;-62
2021/10/27 02:24:56;;;;;;;12.85;4.53;;;11.00;99.90;;;;;;5006577;28;20068;-62
2021/10/27 02:27:22;;;;;;;11.25;4.45;;;11.00;99.90;;;;;;5004549;28;20785;-62
2021/10/27 02:29:47;;;;;;;8.90;4.18;;;11.00;99.90;;;;;;5003638;28;20034;-61
2021/10/27 02:32:12;;;;;;;6.25;3.92;;;11.00;99.90;;;;;;5019608;28;20036;-63
2021/10/27 02:34:38;;;;;;;10.05;4.07;;;11.10;99.90;;;;;;5009619;28;20022;-63
2021/10/27 02:37:03;;;;;;;7.07;4.28;;;11.00;99.90;;;;;;5003359;28;20790;-62
2021/10/27 02:39:30;;;;;;;9.23;4.38;;;11.00;99.90;;;;;;5002918;28;20296;-63
2021/10/27 02:41:55;;;;;;;8.73;4.32;;;11.00;99.90;;;;;;5006836;28;20056;-63
2021/10/27 02:44:21;;;;;;;11.30;3.92;;;11.00;99.90;;;;;;5007981;28;20129;-63
2021/10/27 02:46:47;;;;;;;8.13;3.88;;;11.00;99.90;;;;;;5009637;28;20029;-63
2021/10/27 02:49:13;;;;;;;8.27;5.10;;;11.00;99.90;;;;;;5011030;28;20033;-63
2021/10/27 02:51:38;;;;;;;9.93;3.97;;;11.00;99.90;;;;;;5009822;28;20037;-63
2021/10/27 02:54:04;;;;;;;9.82;4.78;;;11.10;99.90;;;;;;5006786;28;20429;-63
2021/10/27 02:56:29;;;;;;;9.25;4.50;;;11.10;99.90;;;;;;5005660;28;20042;-63
2021/10/27 02:58:55;;;;;;;10.10;4.00;;;11.00;99.90;;;;;;5003587;28;20033;-62
2021/10/27 03:01:20;;;;;;;7.53;3.88;;;11.10;99.90;;;;;;5005400;28;20141;-63
2021/10/27 03:03:46;;;;;;;9.05;3.83;;;11.10;99.90;;;;;;5005295;28;20073;-62
2021/10/27 03:06:12;;;;;;;7.55;4.18;;;11.10;99.90;;;;;;5006667;28;20118;-63
2021/10/27 03:08:37;;;;;;;7.32;3.65;;;11.10;99.90;;;;;;5006932;28;20034;-62
2021/10/27 03:11:03;;;;;;;7.38;3.75;;;11.00;99.90;;;;;;5009995;28;20038;-63
2021/10/27 03:13:28;;;;;;;7.75;3.95;;;11.10;99.90;;;;;;5016901;28;20030;-62
2021/10/27 03:15:54;;;;;;;26.25;5.95;;;11.00;99.90;;;;;;5014487;28;20038;-63
2021/10/27 03:18:19;;;;;;;18.85;3.92;;;11.00;99.90;;;;;;5013052;28;20112;-62
2021/10/27 03:20:45;;;;;;;7.20;3.83;;;11.00;99.90;;;;;;5011762;28;20142;-63
2021/10/27 03:23:10;;;;;;;11.02;4.18;;;10.90;99.90;;;;;;5010863;28;20042;-62
2021/10/27 03:25:36;;;;;;;7.63;3.88;;;10.90;99.90;;;;;;5008752;28;20556;-63
2021/10/27 03:28:01;;;;;;;11.88;4.43;;;10.90;99.90;;;;;;5008054;28;20068;-62
2021/10/27 03:30:28;;;;;;;7.88;3.90;;;10.90;99.90;;;;;;5007015;28;20564;-63
2021/10/27 03:32:54;;;;;;;9.38;3.90;;;10.90;99.90;;;;;;5021937;28;20033;-62
2021/10/27 03:35:19;;;;;;;6.32;4.13;;;10.90;99.90;;;;;;5009250;28;20931;-63
2021/10/27 03:37:45;;;;;;;8.02;4.00;;;10.90;99.90;;;;;;5008604;28;20842;-63
2021/10/27 03:40:10;;;;;;;9.40;4.53;;;10.80;99.90;;;;;;5008971;28;20036;-63
2021/10/27 03:42:36;;;;;;;6.47;3.90;;;10.80;99.90;;;;;;5011649;28;20034;-63
2021/10/27 03:45:01;;;;;;;7.72;4.05;;;10.70;99.90;;;;;;5011641;28;20119;-63
2021/10/27 03:47:27;;;;;;;10.45;4.25;;;10.80;99.90;;;;;;5013810;28;20040;-63
2021/10/27 03:49:53;;;;;;;7.95;4.00;;;10.80;99.90;;;;;;5015521;28;20033;-63
2021/10/27 03:52:18;;;;;;;13.23;4.45;;;10.80;99.90;;;;;;5008597;28;20078;-63
2021/10/27 03:54:44;;;;;;;7.85;4.00;;;10.80;99.90;;;;;;5007395;28;20021;-62
2021/10/27 03:57:10;;;;;;;9.35;4.55;;;10.80;99.90;;;;;;5004833;28;20042;-62
2021/10/27 03:59:35;;;;;;;5.85;3.88;;;10.80;99.90;;;;;;5003852;28;20421;-62
2021/10/27 04:02:01;;;;;;;12.35;4.20;;;10.80;99.90;;;;;;5003950;28;20033;-63
2021/10/27 04:04:27;;;;;;;6.85;4.05;;;10.80;99.90;;;;;;5005034;28;20502;-63
2021/10/27 04:06:52;;;;;;;10.13;4.55;;;10.80;99.90;;;;;;5007649;28;20193;-63
2021/10/27 04:09:18;;;;;;;8.80;4.38;;;10.80;99.90;;;;;;5009027;28;20121;-63
2021/10/27 04:11:43;;;;;;;12.85;4.32;;;10.80;99.90;;;;;;5010244;28;20100;-62
2021/10/27 04:14:09;;;;;;;12.13;4.90;;;10.70;99.90;;;;;;5012772;28;20038;-63
2021/10/27 04:16:34;;;;;;;12.95;5.30;;;10.80;99.90;;;;;;5014157;28;20041;-63
2021/10/27 04:19:00;;;;;;;9.45;4.90;;;10.80;99.90;;;;;;5015608;28;20104;-62
2021/10/27 04:21:25;;;;;;;9.43;4.45;;;10.80;99.90;;;;;;5017064;28;20091;-62
2021/10/27 04:23:50;;;;;;;8.82;4.75;;;10.70;99.90;;;;;;5019122;28;20037;-62
2021/10/27 04:26:16;;;;;;;6.72;4.30;;;10.80;99.90;;;;;;5018698;28;20040;-62
2021/10/27 04:28:41;;;;;;;9.50;4.30;;;10.80;99.90;;;;;;5021645;28;20029;-62
2021/10/27 04:31:07;;;;;;;8.32;4.28;;;10.80;99.90;;;;;;5021564;28;20126;-62
2021/10/27 04:33:33;;;;;;;7.13;4.93;;;10.80;99.90;;;;;;5005728;28;20036;-62
2021/10/27 04:35:58;;;;;;;12.43;4.55;;;10.80;99.90;;;;;;5006903;28;20600;-62
2021/10/27 04:38:24;;;;;;;6.30;4.18;;;10.90;99.90;;;;;;5008472;28;20029;-62
2021/10/27 04:40:49;;;;;;;9.10;4.13;;;10.90;99.90;;;;;;5009994;28;20034;-62
2021/10/27 04:43:15;;;;;;;11.82;4.10;;;10.90;99.90;;;;;;5011973;28;20065;-62
2021/10/27 04:45:40;;;;;;;9.23;4.78;;;10.80;99.90;;;;;;5012267;28;20180;-62
2021/10/27 04:48:05;;;;;;;5.68;3.65;;;10.90;99.90;;;;;;5012643;28;20033;-62
2021/10/27 04:50:31;;;;;;;13.18;4.18;;;10.90;99.90;;;;;;4997519;28;20478;-62
2021/10/27 04:52:56;;;;;;;13.30;4.13;;;10.90;99.90;;;;;;5006123;28;20049;-62
2021/10/27 04:55:22;;;;;;;8.55;3.53;;;10.90;99.90;;;;;;5007960;28;20125;-63
2021/10/27 04:57:47;;;;;;;8.98;3.97;;;10.90;99.90;;;;;;5013718;28;20041;-62
2021/10/27 05:00:13;;;;;;;12.23;3.60;;;11.00;99.90;;;;;;5011155;28;20061;-62
2021/10/27 05:02:38;;;;;;;6.80;3.53;;;11.10;99.90;;;;;;5019878;28;20034;-63
2021/10/27 05:05:04;;;;;;;8.57;3.33;;;11.10;99.90;;;;;;5017985;28;20044;-63
2021/10/27 05:07:29;;;;;;;6.70;3.13;;;11.10;99.90;;;;;;5011901;28;20026;-63
2021/10/27 05:09:55;;;;;;;7.40;3.60;;;11.10;99.90;;;;;;5009587;28;20037;-63
2021/10/27 05:12:21;;;;;;;11.65;3.90;;;11.10;99.90;;;;;;5011325;28;20112;-63
2021/10/27 05:14:47;;;;;;;6.90;3.03;;;11.10;99.90;;;;;;5010463;28;20409;-62
2021/10/27 05:17:13;;;;;;;8.63;3.50;;;11.10;99.90;;;;;;5007892;28;20030;-62
2021/10/27 05:19:38;;;;;;;6.68;3.55;;;11.10;99.90;;;;;;5011701;28;20532;-63
2021/10/27 05:22:03;;;;;;;7.03;3.30;;;11.10;99.90;;;;;;5009815;28;20042;-62
2021/10/27 05:24:29;;;;;;;10.02;3.22;;;11.10;99.90;;;;;;5007939;28;20064;-62
2021/10/27 05:26:54;;;;;;;5.22;2.90;;;11.00;99.90;;;;;;5013124;28;20548;-62
2021/10/27 05:29:20;;;;;;;9.02;3.28;;;11.10;99.90;;;;;;5011492;28;20077;-63
2021/10/27 05:31:46;;;;;;;6.47;3.00;;;11.20;99.90;;;;;;5008309;28;20034;-63
2021/10/27 05:34:11;;;;;;;3.63;3.00;;;11.20;99.90;;;;;;5005870;28;20502;-63
2021/10/27 05:36:37;;;;;;;7.57;3.35;;;11.10;99.90;;;;;;5012420;28;20046;-62
2021/10/27 05:39:02;;;;;;;8.30;3.65;;;11.90;99.90;;;;;;5011129;28;20029;-62
2021/10/27 05:41:28;;;;;;;4.95;3.25;;;11.20;99.90;;;;;;5011781;28;20107;-62
2021/10/27 05:43:53;;;;;;;11.90;3.42;;;11.30;99.90;;;;;;5010738;28;20030;-63
2021/10/27 05:46:20;;;;;;;7.53;3.10;;;11.30;99.90;;;;;;5009018;28;20661;-62
2021/10/27 05:48:49;;;;;;;12.23;3.90;;;11.30;99.90;;;;;;5012551;28;20156;-62
2021/10/27 05:51:21;;;;;;;6.40;3.47;;;11.30;99.90;;;;;;5014025;28;20025;-62
2021/10/27 05:56:32;;;;;;;9.13;3.67;;;11.30;99.90;;;;;;5009927;28;20064;-61
2021/10/27 05:58:59;;;;;;;10.23;3.47;;;11.30;99.90;;;;;;5004733;28;20034;-62
2021/10/27 06:01:24;;;;;;;10.43;3.08;;;11.40;99.90;;;;;;5004456;28;20129;-62
2021/10/27 06:03:50;;;;;;;10.63;3.15;;;11.30;99.90;;;;;;5010779;28;20120;-63
2021/10/27 06:06:15;;;;;;;13.10;3.42;;;11.30;99.90;;;;;;5004638;28;20386;-62
2021/10/27 06:08:41;;;;;;;5.03;2.72;;;11.30;99.90;;;;;;5013442;28;20034;-63
2021/10/27 06:11:09;;;;;;;7.78;3.45;;;11.40;99.90;;;;;;5007978;28;20064;-62
2021/10/27 06:13:36;;;;;;;11.13;5.63;;;11.40;99.90;;;;;;5008744;28;20473;-72
2021/10/27 06:16:02;;;;;;;10.82;5.50;;;11.40;99.90;;;;;;5012829;28;20493;-73
2021/10/27 06:18:27;;;;;;;7.65;2.97;;;11.40;99.90;;;;;;5006587;28;20033;-71
2021/10/27 06:20:53;;;;;;;8.85;3.83;;;11.40;99.90;;;;;;5011282;28;20032;-71
2021/10/27 06:23:18;;;;;;;5.65;3.30;;;11.40;99.90;;;;;;5010395;28;20034;-71
2021/10/27 06:25:44;;;;;;;10.23;4.68;;;11.40;99.90;;;;;;4999813;28;20038;-72
2021/10/27 06:28:13;;;;;;;15.07;4.20;;;11.30;99.90;;;;;;5007586;28;20537;-71
2021/10/27 06:33:42;;;;;;;11.82;4.25;;;11.30;99.90;;;;;;5005642;28;20083;-71
2021/10/27 06:36:18;;;;;;;;;;;11.30;99.90;;;;;;5014688;28;20120;-62
2021/10/27 06:46:51;;;;;;;7.55;3.08;;;11.40;99.90;;;;;;5007995;28;20045;-62
2021/10/27 06:49:17;;;;;;;7.05;3.10;;;11.30;99.90;;;;;;5008323;28;20052;-62
2021/10/27 06:51:42;;;;;;;6.68;3.25;;;11.40;99.90;;;;;;5021502;28;20464;-62
2021/10/27 06:54:08;;;;;;;8.55;3.00;;;11.40;99.90;;;;;;5016418;28;20457;-62
2021/10/27 06:56:35;;;;;;;5.40;3.03;;;11.40;99.90;;;;;;5010049;28;20109;-62
2021/10/27 06:59:10;;;;;;;5.80;2.80;;;11.40;99.90;;;;;;5004747;28;20030;-62
2021/10/27 07:17:32;;;;;;;11.18;3.38;;;11.40;99.90;;;;;;5009365;28;20040;-63
2021/10/27 07:19:58;;;;;;;7.97;2.97;;;11.50;99.90;;;;;;5015654;28;20752;-61
2021/10/27 07:22:23;;;;;;;7.05;2.97;;;11.50;99.90;;;;;;5017266;28;20779;-62
2021/10/27 07:24:49;;;;;;;7.25;3.00;;;11.60;99.90;;;;;;5011397;28;20037;-62
2021/10/27 07:27:15;;;;;;;7.47;3.38;;;11.60;99.90;;;;;;5010678;28;20729;-62
2021/10/27 07:29:44;;;;;;;7.93;3.13;;;11.60;99.90;;;;;;5010682;28;20560;-62
2021/10/27 07:32:11;;;;;;;8.55;3.28;;;11.70;99.90;;;;;;5012323;28;20048;-62
2021/10/27 07:34:40;;;;;;;7.80;3.55;;;11.60;99.90;;;;;;5017264;28;20037;-62
2021/10/27 07:42:21;;;;;;;9.50;3.30;;;11.70;99.90;;;;;;5010503;28;20050;-63
2021/10/27 07:44:46;;;;;;;11.23;3.15;;;11.80;99.90;;;;;;5010151;28;20605;-62
2021/10/27 07:47:12;;;;;;;8.73;3.10;;;11.80;99.90;;;;;;5008216;28;20139;-63
2021/10/27 07:49:37;;;;;;;6.88;3.28;;;11.90;99.90;;;;;;5011130;28;20065;-63
2021/10/27 07:52:03;;;;;;;7.85;3.33;;;12.00;99.90;;;;;;5010088;28;20115;-63
2021/10/27 07:54:28;;;;;;;8.10;3.13;;;12.00;99.90;;;;;;5002766;28;20142;-62
2021/10/27 07:56:54;;;;;;;9.82;3.47;;;12.10;99.90;;;;;;5013219;28;20065;-63
2021/10/27 07:59:21;;;;;;;6.70;4.20;;;12.10;99.90;;;;;;5005567;28;20547;-62
2021/10/27 08:01:46;;;;;;;10.73;3.25;;;12.20;99.90;;;;;;5008510;28;20022;-63
2021/10/27 08:04:12;;;;;;;6.80;3.28;;;12.20;99.90;;;;;;5014972;28;20079;-62
2021/10/27 08:06:37;;;;;;;6.43;3.22;;;12.20;99.90;;;;;;5012878;28;20052;-62
2021/10/27 08:09:03;;;;;;;8.25;3.58;;;12.30;99.90;;;;;;5014015;28;20517;-62
2021/10/27 08:11:28;;;;;;;6.85;3.42;;;12.40;99.90;;;;;;5012908;28;20461;-62
2021/10/27 08:13:54;;;;;;;10.35;3.00;;;12.50;99.90;;;;;;5012295;28;20506;-62
2021/10/27 08:16:19;;;;;;;4.90;3.13;;;12.50;99.90;;;;;;5009165;28;20034;-62
2021/10/27 08:18:45;;;;;;;13.07;3.75;;;12.40;99.90;;;;;;5005761;28;20510;-62
2021/10/27 08:21:10;;;;;;;6.50;3.03;;;12.40;99.90;;;;;;5019723;28;20037;-62
2021/10/27 08:23:40;;;;;;;8.20;3.22;;;12.30;99.90;;;;;;5014986;28;20546;-61
2021/10/27 08:26:12;;;;;;;9.77;3.42;;;12.30;99.90;;;;;;5016827;28;20548;-62
2021/10/27 08:28:39;;;;;;;22.20;7.53;;;12.40;99.90;;;;;;5004188;28;20056;-62
2021/10/27 08:35:56;;;;;;;15.57;6.38;;;13.10;99.90;;;;;;5010227;28;20037;-61
2021/10/27 08:38:22;;;;;;;13.25;6.25;;;13.30;99.90;;;;;;5011051;28;20135;-62
2021/10/27 08:40:48;;;;;;;11.32;4.53;;;13.60;99.90;;;;;;5008662;28;20057;-62
2021/10/27 08:43:13;;;;;;;9.70;3.88;;;13.80;99.90;;;;;;5006952;28;20037;-62
2021/10/27 08:45:39;;;;;;;15.30;5.20;;;14.10;99.90;;;;;;5005151;28;20696;-62
2021/10/27 08:48:05;;;;;;;17.23;5.75;;;14.50;99.90;;;;;;5009418;28;20401;-62
2021/10/27 08:50:30;;;;;;;9.40;3.90;;;14.80;99.90;;;;;;5017193;28;20099;-64
2021/10/27 08:52:56;;;;;;;12.15;5.30;;;14.70;99.90;;;;;;5016677;28;20037;-64
2021/10/27 08:55:21;;;;;;;17.92;8.35;;;14.40;99.90;;;;;;5015087;28;20064;-63
2021/10/27 08:57:49;;;;;;;14.43;6.65;;;14.20;99.90;;;;;;5007369;28;20033;-62
2021/10/27 09:00:32;;;;;;;34.20;17.10;;;14.10;99.90;;;;;;5006946;28;20560;-62
2021/10/27 09:35:01;;;;;;;19.08;7.32;;;13.50;99.90;;;;;;5006669;28;20057;-62
2021/10/27 09:37:44;;;;;;;9.02;4.10;;;13.50;99.90;;;;;;5006096;28;20068;-62
2021/10/27 10:06:27;;;;;;;29.55;11.45;;;14.00;99.90;;;;;;5006189;28;20024;-62
2021/10/27 10:08:53;;;;;;;13.98;7.13;;;14.00;99.90;;;;;;5004486;28;20526;-62
2021/10/27 10:11:18;;;;;;;25.35;8.27;;;13.90;99.90;;;;;;5002178;28;20029;-62
2021/10/27 10:13:44;;;;;;;18.75;6.45;;;13.80;99.90;;;;;;5008550;28;20033;-62
2021/10/27 10:16:09;;;;;;;10.57;4.43;;;13.80;99.90;;;;;;5009477;28;20034;-62
2021/10/27 10:18:35;;;;;;;24.60;9.10;;;13.80;99.90;;;;;;5006810;28;20041;-62
2021/10/27 10:21:00;;;;;;;46.13;14.35;;;14.00;99.90;;;;;;5001727;28;20049;-63
2021/10/27 10:23:26;;;;;;;16.27;4.70;;;14.10;99.90;;;;;;5001382;28;20045;-63
2021/10/27 10:25:52;;;;;;;14.25;5.38;;;14.20;99.90;;;;;;5004661;28;20136;-63
2021/10/27 10:28:18;;;;;;;41.40;15.43;;;14.20;99.90;;;;;;5006250;28;20070;-62
2021/10/27 10:30:52;;;;;;;24.70;8.25;;;14.10;99.90;;;;;;5010307;28;20799;-63
2021/10/27 10:33:18;;;;;;;21.98;7.38;;;14.10;99.90;;;;;;5012174;28;20056;-62
2021/10/27 10:35:50;;;;;;;25.15;8.32;;;14.10;99.90;;;;;;5013889;28;20033;-63
2021/10/27 10:38:17;;;;;;;12.77;5.18;;;14.10;99.90;;;;;;5014592;28;20512;-62
2021/10/27 10:43:46;;;;;;;17.17;6.57;;;14.20;99.90;;;;;;5017973;28;20080;-63
2021/10/27 11:00:14;;;;;;;13.75;5.75;;;14.40;99.90;;;;;;5011162;28;20171;-63
2021/10/27 11:03:12;;;;;;;33.20;9.55;;;14.40;99.90;;;;;;5001646;28;20033;-63
2021/10/27 11:38:12;;;;;;;6.65;2.42;;;14.60;99.90;;;;;;5003180;28;20140;-70
2021/10/27 11:40:41;;;;;;;7.20;2.63;;;14.40;99.90;;;;;;5004407;28;20136;-70
2021/10/27 11:48:31;;;;;;;6.63;2.50;;;14.40;99.90;;;;;;5013282;28;20798;-63
2021/10/27 11:50:57;;;;;;;8.13;2.63;;;14.70;99.90;;;;;;5011143;28;20046;-63
2021/10/27 11:53:23;;;;;;;5.90;2.50;;;14.80;99.90;;;;;;5009900;28;20041;-63
2021/10/27 11:55:48;;;;;;;5.03;2.50;;;14.70;99.90;;;;;;5010191;28;20666;-63
2021/10/27 11:58:14;;;;;;;5.22;2.25;;;14.80;99.90;;;;;;5010416;28;20057;-63
2021/10/27 12:00:42;;;;;;;8.77;2.83;;;15.00;99.90;;;;;;5011413;28;20399;-63
2021/10/27 12:03:27;;;;;;;9.57;2.95;;;14.80;99.90;;;;;;5008443;28;20095;-63
2021/10/27 12:14:11;;;;;;;6.18;2.53;;;14.60;99.90;;;;;;4990851;28;20053;-63
2021/10/27 12:19:18;;;;;;;8.73;2.42;;;14.80;99.90;;;;;;5002267;28;20058;-62
2021/10/27 12:21:43;;;;;;;7.03;3.28;;;14.80;99.90;;;;;;5011644;28;20408;-63
2021/10/27 12:24:09;;;;;;;5.85;2.28;;;14.80;99.90;;;;;;5007703;28;20030;-63
2021/10/27 12:26:34;;;;;;;6.53;2.80;;;14.70;99.90;;;;;;5011110;28;20037;-62
2021/10/27 12:29:00;;;;;;;17.35;9.60;;;14.60;99.90;;;;;;5008540;28;20072;-62
2021/10/27 12:31:26;;;;;;;29.25;18.17;;;14.60;99.90;;;;;;5009474;28;20429;-62
2021/10/27 12:33:51;;;;;;;15.15;5.78;;;14.70;99.90;;;;;;5006773;28;20413;-62
2021/10/27 12:36:23;;;;;;;12.77;5.05;;;14.80;99.90;;;;;;5010788;28;20041;-63
2021/10/27 12:38:49;;;;;;;9.52;3.20;;;14.70;99.90;;;;;;5008828;28;20534;-62
2021/10/27 12:41:14;;;;;;;8.95;2.58;;;14.70;99.90;;;;;;5009662;28;20029;-62
2021/10/27 12:43:42;;;;;;;6.57;2.20;;;14.80;99.90;;;;;;5009581;28;20733;-63
2021/10/27 12:46:08;;;;;;;5.85;2.58;;;14.10;99.90;;;;;;5008087;28;20099;-62
2021/10/27 12:48:33;;;;;;;5.72;2.30;;;14.80;99.90;;;;;;5010580;28;20517;-63
2021/10/27 12:50:59;;;;;;;5.18;2.50;;;14.80;99.90;;;;;;5008111;28;20063;-63
2021/10/27 12:53:24;;;;;;;6.82;2.50;;;14.90;99.90;;;;;;5009268;28;20033;-63
2021/10/27 12:55:49;;;;;;;7.57;3.03;;;14.90;99.90;;;;;;5006670;28;20029;-63
2021/10/27 12:58:16;;;;;;;6.70;2.85;;;14.90;99.90;;;;;;5005170;28;20038;-63
2021/10/27 13:00:50;;;;;;;9.25;3.47;;;15.00;99.90;;;;;;5009156;28;20094;-63
2021/10/27 13:06:06;;;;;;;11.02;3.28;;;14.90;99.90;;;;;;5007849;28;20046;-63
2021/10/27 13:13:38;;;;;;;8.65;4.03;;;15.00;99.90;;;;;;5010108;28;20856;-62
2021/10/27 13:21:20;;;;;;;6.60;3.47;;;14.90;99.90;;;;;;5007673;28;20576;-62
2021/10/27 13:31:55;;;;;;;7.15;3.97;;;14.90;99.90;;;;;;5009735;28;20084;-63
2021/10/27 13:34:21;;;;;;;9.70;3.45;;;15.00;99.90;;;;;;5012438;28;20061;-63
2021/10/27 13:36:47;;;;;;;9.63;3.50;;;14.90;99.90;;;;;;5010502;28;20025;-63
2021/10/27 13:39:12;;;;;;;8.80;3.33;;;14.90;99.90;;;;;;5008940;28;20026;-63
2021/10/27 13:41:38;;;;;;;7.85;3.20;;;14.80;99.90;;;;;;5009794;28;20079;-62
2021/10/27 13:44:17;;;;;;;8.27;2.88;;;14.90;99.90;;;;;;5009053;28;20100;-62
2021/10/27 13:57:52;;;;;;;4.07;2.35;;;14.80;99.90;;;;;;5009404;28;20037;-63
2021/10/27 14:06:07;;;;;;;7.25;2.92;;;14.80;99.90;;;;;;5008059;28;20042;-63
2021/10/27 14:09:21;;;;;;;10.88;3.30;;;14.80;99.90;;;;;;5010116;28;20502;-63
2021/10/27 14:41:03;;;;;;;7.03;2.53;;;14.70;99.90;;;;;;5009183;28;20037;-63
2021/10/27 15:21:42;;;;;;;8.48;2.70;;;14.60;99.90;;;;;;5007988;28;20066;-63
2021/10/27 15:24:29;;;;;;;7.13;2.70;;;14.50;99.90;;;;;;5007282;28;20033;-64
2021/10/27 15:35:19;;;;;;;8.77;3.13;;;14.50;99.90;;;;;;5014152;28;20634;-63
2021/10/27 15:51:16;;;;;;;14.55;7.95;;;14.40;99.90;;;;;;5008178;28;20117;-64
2021/10/27 15:53:42;;;;;;;22.75;8.18;;;14.40;99.90;;;;;;5011465;28;20045;-64
2021/10/27 15:56:07;;;;;;;12.77;5.50;;;14.40;99.90;;;;;;5008454;28;20119;-63
2021/10/27 15:58:33;;;;;;;22.95;8.55;;;14.30;99.90;;;;;;5014592;28;20025;-63
2021/10/27 16:00:59;;;;;;;23.02;9.10;;;14.30;99.90;;;;;;5012559;28;20044;-63
2021/10/27 16:03:24;;;;;;;29.00;10.45;;;14.30;99.90;;;;;;5012442;28;20042;-63
2021/10/27 16:05:52;;;;;;;17.95;7.43;;;14.30;99.90;;;;;;5013206;28;20031;-63
2021/10/27 16:08:20;;;;;;;13.57;6.53;;;14.30;99.90;;;;;;5014738;28;20128;-63
2021/10/27 16:10:47;;;;;;;12.38;4.90;;;14.30;99.90;;;;;;5014129;28;20036;-63
2021/10/27 16:13:12;;;;;;;33.72;16.48;;;14.20;99.90;;;;;;5010108;28;20030;-63
2021/10/27 16:15:39;;;;;;;57.75;26.92;;;14.20;99.90;;;;;;5012657;28;20657;-63
2021/10/27 16:18:05;;;;;;;23.33;12.57;;;14.60;99.90;;;;;;5008004;28;20025;-63
2021/10/27 16:20:31;;;;;;;61.70;25.75;;;14.20;99.90;;;;;;5013537;28;20041;-63
2021/10/27 16:22:56;;;;;;;25.00;12.02;;;14.20;99.90;;;;;;5009172;28;20116;-63
2021/10/27 16:25:21;;;;;;;22.17;9.75;;;14.20;99.90;;;;;;5012360;28;20038;-63
2021/10/27 16:27:47;;;;;;;19.02;10.65;;;14.20;99.90;;;;;;5008161;28;20095;-63
2021/10/27 16:30:13;;;;;;;25.77;13.45;;;14.20;99.90;;;;;;5011191;28;20037;-63
2021/10/27 16:32:38;;;;;;;9.50;4.35;;;14.20;99.90;;;;;;5010525;28;20122;-63
2021/10/27 16:35:04;;;;;;;26.30;12.25;;;14.20;99.90;;;;;;5010847;28;20068;-63
2021/10/27 16:37:29;;;;;;;31.10;12.10;;;14.10;99.90;;;;;;5010028;28;20030;-63
2021/10/27 16:39:55;;;;;;;43.45;20.38;;;14.10;99.90;;;;;;5010666;28;20030;-63
2021/10/27 16:42:21;;;;;;;25.75;11.20;;;14.10;99.90;;;;;;5010423;28;20038;-63
2021/10/27 16:44:47;;;;;;;21.60;8.95;;;14.10;99.90;;;;;;5011265;28;20029;-63
2021/10/27 16:47:13;;;;;;;17.73;6.75;;;14.20;99.90;;;;;;5009630;28;20427;-63
2021/10/27 16:49:38;;;;;;;19.40;7.47;;;14.00;99.90;;;;;;5011156;28;20140;-63
2021/10/27 16:52:03;;;;;;;39.42;17.08;;;14.10;99.90;;;;;;5012110;28;20048;-63
2021/10/27 16:54:29;;;;;;;13.05;6.47;;;14.10;99.90;;;;;;5009440;28;20101;-63
2021/10/27 16:56:54;;;;;;;55.72;23.58;;;14.10;99.90;;;;;;5017457;28;20493;-63
2021/10/27 16:59:20;;;;;;;22.42;10.40;;;14.10;99.90;;;;;;5009658;28;20029;-63
2021/10/27 17:01:46;;;;;;;28.52;12.02;;;14.10;99.90;;;;;;5008401;28;20706;-63
2021/10/27 17:04:11;;;;;;;6.20;3.92;;;14.10;99.90;;;;;;5011013;28;20095;-64
2021/10/27 17:06:37;;;;;;;9.27;3.20;;;14.00;99.90;;;;;;5011192;28;20029;-63
2021/10/27 17:09:03;;;;;;;9.25;4.53;;;14.00;99.90;;;;;;4994220;28;20153;-63
2021/10/27 17:11:29;;;;;;;15.35;6.82;;;14.00;99.90;;;;;;5010633;28;20038;-63
2021/10/27 17:13:54;;;;;;;18.92;8.40;;;14.00;99.90;;;;;;5010063;28;20103;-63
2021/10/27 17:16:20;;;;;;;24.58;11.02;;;13.90;99.90;;;;;;5010851;28;20030;-63
2021/10/27 17:18:46;;;;;;;19.45;7.22;;;14.00;99.90;;;;;;5013208;28;20828;-63
2021/10/27 17:21:11;;;;;;;14.23;5.55;;;14.00;99.90;;;;;;5008661;28;20076;-63
2021/10/27 17:23:38;;;;;;;20.17;9.15;;;14.00;99.90;;;;;;5010429;28;20485;-63
2021/10/27 17:26:04;;;;;;;17.15;7.32;;;14.00;99.90;;;;;;5008777;28;20110;-63
2021/10/27 17:28:30;;;;;;;10.02;4.70;;;14.00;99.90;;;;;;5009779;28;20706;-63
2021/10/27 17:30:57;;;;;;;17.65;7.70;;;14.00;99.90;;;;;;5008127;28;20033;-63